Coalfield, Tennessee
Current Conditions -  °F | °C
As of 3:53 AM on Saturday 20 Dec 2014 (Local Time) from KOQT Reporting Station
Overcast Overcast  
Wind Chill: 39°   Ceiling: 8000
Heat Index: 39°   Visibility: 10mi
Dew Point: 29°   Wind: 0mph
Humidity: 67%   Direction: NA
Pressure: 30.18"   Gusts: NA
Location:  36.03°N, 84.42°W
Report Text: KOQT 200853Z AUTO 00000KT 10SM FEW065 OVC080 04/M02 A3018 RMK AO2 SLP228 T00391017 53004
Loading
Personal Weather Stations






























Interactive Weather Map New forecast layout! Learn more

10-Day Weather Forecast

Advertisements
Track Severe Weather on mobile